Time;durP1;ratioP1;P1;durP2;ratioP2;P2;SDS_P1;SDS_P2;PMS_P1;PMS_P2;Temp;Humidity;BMP_temperature;BMP_pressure;BME280_temperature;BME280_humidity;BME280_pressure;Samples;Min_cycle;Max_cycle;Signal;HPM_P1;HPM_P2
2023/05/24 00:02:05;;;;;;;8.82;3.15;;;;;;;9.41;94.40;102478.41;5069733;28;20050;-36
2023/05/24 00:04:31;;;;;;;7.97;2.75;;;;;;;9.25;94.90;102465.91;5070143;28;20028;-35
2023/05/24 00:06:57;;;;;;;9.40;3.13;;;;;;;9.22;96.20;102457.34;5069644;28;20516;-36
2023/05/24 00:09:22;;;;;;;7.13;2.50;;;;;;;9.32;95.53;102468.75;5069732;28;20039;-35
2023/05/24 00:11:47;;;;;;;8.07;3.10;;;;;;;9.22;95.62;102470.84;5061384;28;20033;-36
2023/05/24 00:14:13;;;;;;;7.53;2.47;;;;;;;9.16;96.01;102466.16;5056315;28;20025;-36
2023/05/24 00:16:38;;;;;;;5.20;1.93;;;;;;;9.13;97.23;102461.16;5056585;28;20710;-36
2023/05/24 00:19:04;;;;;;;7.75;2.25;;;;;;;9.07;97.37;102462.69;5056410;28;20037;-36
2023/05/24 00:21:30;;;;;;;5.70;2.07;;;;;;;9.02;97.41;102455.16;5056541;28;20029;-36
2023/05/24 00:23:56;;;;;;;6.65;2.13;;;;;;;9.00;97.42;102440.19;5056042;28;20036;-36
2023/05/24 00:26:22;;;;;;;8.00;2.50;;;;;;;9.07;98.10;102448.38;5056109;28;20029;-36
2023/05/24 00:28:47;;;;;;;7.32;2.10;;;;;;;9.05;98.32;102453.13;5056020;28;20086;-36
2023/05/24 00:31:12;;;;;;;7.93;2.60;;;;;;;9.03;97.00;102456.00;5056309;28;20060;-36
2023/05/24 00:33:38;;;;;;;11.20;2.43;;;;;;;9.02;97.79;102446.22;5055714;28;20033;-36
2023/05/24 00:36:03;;;;;;;6.40;2.53;;;;;;;9.02;98.10;102444.34;5055890;28;20064;-36
2023/05/24 00:38:28;;;;;;;6.57;2.13;;;;;;;8.97;98.75;102435.97;5056075;28;20025;-35
2023/05/24 00:40:59;;;;;;;10.27;3.13;;;;;;;8.95;98.11;102448.81;5056025;28;20036;-36
2023/05/24 00:43:25;;;;;;;8.95;2.75;;;;;;;8.80;98.57;102449.78;5056291;28;20362;-36
2023/05/24 00:46:21;;;;;;;6.72;2.67;;;;;;;8.77;98.32;102440.19;5055476;28;20072;-36
2023/05/24 00:48:47;;;;;;;5.72;2.05;;;;;;;8.73;99.55;102450.47;5055822;28;20389;-36
2023/05/24 00:51:13;;;;;;;7.25;2.30;;;;;;;8.64;99.91;102440.81;5055606;28;20090;-36
2023/05/24 00:53:40;;;;;;;6.82;2.33;;;;;;;8.69;100.00;102443.78;5055197;28;20056;-36
2023/05/24 00:56:07;;;;;;;8.23;2.35;;;;;;;8.57;100.00;102426.34;5055807;28;20483;-35
2023/05/24 00:58:32;;;;;;;7.75;2.60;;;;;;;8.66;100.00;102446.00;5055476;28;20104;-36
2023/05/24 01:01:00;;;;;;;7.03;2.20;;;;;;;8.56;100.00;102437.31;5055997;28;20187;-35
2023/05/24 01:03:29;;;;;;;7.95;2.20;;;;;;;8.57;100.00;102439.81;5055012;28;20025;-35
2023/05/24 01:05:58;;;;;;;8.02;2.15;;;;;;;8.51;100.00;102435.16;5055341;28;20078;-36
2023/05/24 01:08:41;;;;;;;10.52;2.75;;;;;;;8.49;100.00;102438.03;5055261;28;20032;-36
2023/05/24 01:11:26;;;;;;;8.27;2.50;;;;;;;8.45;100.00;102442.09;5055201;28;20143;-36
2023/05/24 01:13:55;;;;;;;7.40;2.00;;;;;;;8.31;100.00;102434.72;5055662;28;20033;-36
2023/05/24 01:16:31;;;;;;;5.85;2.25;;;;;;;8.33;100.00;102430.00;5055486;28;20399;-36
2023/05/24 01:19:04;;;;;;;10.27;2.85;;;;;;;8.25;100.00;102430.06;5055390;28;20028;-36
2023/05/24 01:21:47;;;;;;;10.15;2.35;;;;;;;8.21;100.00;102431.44;5055016;28;20492;-36
2023/05/24 01:24:28;;;;;;;7.18;2.35;;;;;;;8.20;100.00;102429.75;5053996;28;20116;-36
2023/05/24 01:27:05;;;;;;;7.88;2.13;;;;;;;8.20;100.00;102427.91;5055201;28;20074;-36
2023/05/24 01:29:31;;;;;;;7.90;2.55;;;;;;;8.16;100.00;102415.78;5054846;28;20090;-36
2023/05/24 01:31:56;;;;;;;;;;;;;;;8.39;100.00;102415.81;5055321;28;20055;-36
2023/05/24 01:34:24;;;;;;;7.85;2.22;;;;;;;8.19;100.00;102425.34;5054767;28;19908;-36
2023/05/24 01:36:50;;;;;;;7.80;2.30;;;;;;;8.17;100.00;102428.22;5054680;28;20029;-36
2023/05/24 01:39:15;;;;;;;8.47;2.17;;;;;;;8.17;100.00;102433.63;5054584;28;20461;-35
2023/05/24 01:41:55;;;;;;;8.40;2.63;;;;;;;8.18;100.00;102426.38;5055156;28;20278;-36
2023/05/24 01:44:33;;;;;;;7.10;2.35;;;;;;;8.07;100.00;102421.38;5054854;28;20359;-36
2023/05/24 01:47:23;;;;;;;9.45;2.42;;;;;;;8.06;100.00;102420.56;5054524;28;20033;-36
2023/05/24 01:49:56;;;;;;;9.43;2.30;;;;;;;7.91;100.00;102409.69;5054739;28;20381;-36
2023/05/24 01:52:26;;;;;;;10.65;2.88;;;;;;;7.90;100.00;102424.13;5054190;28;20029;-36
2023/05/24 01:54:54;;;;;;;10.43;2.67;;;;;;;7.87;100.00;102420.97;5054011;28;20058;-36
2023/05/24 01:57:21;;;;;;;8.05;2.65;;;;;;;7.91;100.00;102433.09;5054320;28;20029;-36
2023/05/24 01:59:48;;;;;;;9.57;2.53;;;;;;;7.90;100.00;102421.44;5054326;28;20144;-36
2023/05/24 02:02:14;;;;;;;7.18;2.55;;;;;;;7.83;100.00;102425.88;5054540;28;20025;-36
2023/05/24 02:04:40;;;;;;;9.90;3.03;;;;;;;7.89;100.00;102430.53;5053921;28;20396;-36
2023/05/24 02:07:05;;;;;;;6.97;2.67;;;;;;;7.84;100.00;102424.84;5054187;28;20102;-36
2023/05/24 02:09:31;;;;;;;5.33;2.17;;;;;;;7.91;100.00;102436.63;5053833;28;20039;-36
2023/05/24 02:11:57;;;;;;;9.85;3.00;;;;;;;7.99;100.00;102438.41;5054649;28;20493;-36
2023/05/24 02:14:23;;;;;;;6.43;2.58;;;;;;;7.99;100.00;102431.16;5054079;28;20064;-36
2023/05/24 02:16:49;;;;;;;8.68;2.50;;;;;;;8.00;100.00;102443.66;5053753;28;20028;-36
2023/05/24 02:19:16;;;;;;;;;;;;;;;8.19;100.00;102436.13;5054239;28;20029;-36
2023/05/24 02:21:41;;;;;;;7.07;2.53;;;;;;;8.05;100.00;102431.47;5053671;28;19917;-36
2023/05/24 02:24:06;;;;;;;7.35;3.05;;;;;;;7.99;100.00;102441.94;5053863;28;20049;-36
2023/05/24 02:26:32;;;;;;;8.03;2.77;;;;;;;7.94;100.00;102447.03;5053854;28;20025;-36
2023/05/24 02:28:58;;;;;;;10.68;2.80;;;;;;;7.91;100.00;102447.38;5053723;28;20465;-36
2023/05/24 02:31:27;;;;;;;6.97;2.63;;;;;;;7.97;100.00;102444.00;5054627;28;20068;-36
2023/05/24 02:33:53;;;;;;;9.88;2.75;;;;;;;7.88;100.00;102438.81;5053696;28;20267;-36
2023/05/24 02:36:18;;;;;;;9.77;2.80;;;;;;;7.91;100.00;102444.69;5054498;28;20040;-36
2023/05/24 02:38:43;;;;;;;8.00;2.77;;;;;;;7.96;100.00;102436.94;5053684;28;20048;-36
2023/05/24 02:41:10;;;;;;;7.13;2.70;;;;;;;7.91;100.00;102435.78;5054195;28;20028;-36
2023/05/24 02:43:36;;;;;;;7.63;2.85;;;;;;;7.80;100.00;102439.66;5053547;28;20104;-36
2023/05/24 02:46:01;;;;;;;8.63;2.83;;;;;;;7.78;100.00;102439.00;5053645;28;20080;-36
2023/05/24 02:48:26;;;;;;;5.80;2.57;;;;;;;7.77;100.00;102448.13;5053783;28;20536;-36
2023/05/24 02:50:52;;;;;;;6.50;2.47;;;;;;;7.77;100.00;102442.72;5053564;28;20384;-36
2023/05/24 02:53:17;;;;;;;7.22;2.60;;;;;;;7.75;100.00;102444.72;5053464;28;20477;-36
2023/05/24 02:55:42;;;;;;;8.23;2.70;;;;;;;7.73;100.00;102431.44;5053304;28;20036;-36
2023/05/24 02:58:08;;;;;;;9.60;3.00;;;;;;;7.78;100.00;102444.41;5053962;28;20078;-36
2023/05/24 03:00:33;;;;;;;10.27;3.20;;;;;;;7.73;100.00;102436.84;5053698;28;20760;-36
2023/05/24 03:03:01;;;;;;;6.33;2.40;;;;;;;7.78;100.00;102440.88;5053431;28;20521;-36
2023/05/24 03:05:27;;;;;;;7.68;3.00;;;;;;;7.75;100.00;102450.13;5053749;28;20025;-36
2023/05/24 03:07:52;;;;;;;7.35;2.80;;;;;;;7.75;100.00;102442.88;5053439;28;20029;-36
2023/05/24 03:10:18;;;;;;;6.43;2.60;;;;;;;7.81;100.00;102443.19;5053677;28;20029;-36
2023/05/24 03:12:43;;;;;;;10.43;3.43;;;;;;;7.64;100.00;102432.50;5053678;28;20032;-36
2023/05/24 03:15:09;;;;;;;10.90;3.63;;;;;;;7.65;100.00;102433.31;5053575;28;20067;-36
2023/05/24 03:17:34;;;;;;;9.77;2.83;;;;;;;7.60;100.00;102427.63;5053638;28;20317;-36
2023/05/24 03:20:00;;;;;;;9.63;3.03;;;;;;;7.58;100.00;102435.88;5053148;28;20033;-36
2023/05/24 03:22:25;;;;;;;7.63;3.63;;;;;;;7.51;100.00;102432.19;5053265;28;20025;-36
2023/05/24 03:24:51;;;;;;;7.20;3.30;;;;;;;7.48;100.00;102422.63;5052961;28;20029;-36
2023/05/24 03:27:16;;;;;;;17.90;4.27;;;;;;;7.48;100.00;102428.00;5052872;28;20107;-36
2023/05/24 03:29:41;;;;;;;10.00;4.00;;;;;;;7.52;100.00;102436.56;5052882;28;20136;-36
2023/05/24 03:32:07;;;;;;;11.80;3.43;;;;;;;7.57;100.00;102436.06;5053696;28;20043;-36
2023/05/24 03:34:32;;;;;;;12.57;3.83;;;;;;;7.52;100.00;102428.50;5052839;28;20036;-36
2023/05/24 03:36:57;;;;;;;7.13;3.37;;;;;;;7.50;100.00;102422.44;5053724;28;20313;-36
2023/05/24 03:39:23;;;;;;;11.80;3.90;;;;;;;7.54;100.00;102436.41;5052741;28;20068;-36
2023/05/24 03:41:48;;;;;;;9.73;3.30;;;;;;;7.55;100.00;102435.38;5052394;28;20025;-36
2023/05/24 03:44:13;;;;;;;10.47;4.17;;;;;;;7.47;100.00;102434.41;5053549;28;20083;-36
2023/05/24 03:46:39;;;;;;;8.97;3.70;;;;;;;7.46;100.00;102430.00;5054207;28;20135;-36
2023/05/24 03:49:06;;;;;;;10.55;3.55;;;;;;;7.50;100.00;102427.81;5056465;28;20031;-36
2023/05/24 03:51:31;;;;;;;9.90;3.83;;;;;;;7.44;100.00;102421.28;5057307;28;20112;-36
2023/05/24 03:53:57;;;;;;;8.32;3.47;;;;;;;7.40;100.00;102414.53;5056676;28;20505;-36
2023/05/24 03:56:23;;;;;;;9.38;3.53;;;;;;;7.48;100.00;102421.78;5057021;28;20354;-36
2023/05/24 03:58:51;;;;;;;8.45;3.63;;;;;;;7.48;100.00;102422.63;5057066;28;20033;-36
2023/05/24 04:01:17;;;;;;;9.90;3.58;;;;;;;7.49;100.00;102421.59;5056338;28;20144;-36
2023/05/24 04:03:44;;;;;;;7.70;3.70;;;;;;;7.44;100.00;102425.81;5056189;28;20555;-36
2023/05/24 04:06:10;;;;;;;12.00;4.07;;;;;;;7.39;100.00;102420.94;5055214;28;20107;-36
2023/05/24 04:08:36;;;;;;;12.27;4.10;;;;;;;7.38;100.00;102423.81;5056239;28;20035;-36
2023/05/24 04:11:01;;;;;;;10.45;3.85;;;;;;;7.38;100.00;102424.66;5056682;28;20112;-36
2023/05/24 04:13:27;;;;;;;8.10;3.42;;;;;;;7.36;100.00;102426.66;5056340;28;20037;-36
2023/05/24 04:15:52;;;;;;;8.07;3.47;;;;;;;7.36;100.00;102428.50;5057219;28;20025;-36
2023/05/24 04:18:17;;;;;;;12.13;4.57;;;;;;;7.34;100.00;102414.41;5056292;28;20079;-36
2023/05/24 04:20:43;;;;;;;8.07;3.60;;;;;;;7.43;100.00;102433.06;5056163;28;20044;-36
2023/05/24 04:23:08;;;;;;;6.17;3.37;;;;;;;7.38;100.00;102426.50;5056684;28;20028;-36
2023/05/24 04:25:34;;;;;;;8.40;3.73;;;;;;;7.40;100.00;102424.47;5055907;28;20021;-36
2023/05/24 04:28:01;;;;;;;9.90;4.30;;;;;;;7.53;100.00;102430.16;5056829;28;20271;-36
2023/05/24 04:30:28;;;;;;;8.00;3.85;;;;;;;7.47;100.00;102418.25;5056557;28;20313;-36
2023/05/24 04:32:55;;;;;;;8.73;3.67;;;;;;;7.57;100.00;102430.69;5056433;28;20414;-36
2023/05/24 04:35:21;;;;;;;8.48;4.13;;;;;;;7.55;100.00;102419.22;5055239;28;20025;-36
2023/05/24 04:37:48;;;;;;;10.25;4.13;;;;;;;7.62;100.00;102431.84;5055823;28;20428;-36
2023/05/24 04:40:15;;;;;;;9.95;3.67;;;;;;;7.74;100.00;102429.59;5056084;28;20116;-36
2023/05/24 04:42:40;;;;;;;11.02;4.13;;;;;;;7.82;100.00;102434.97;5055713;28;20029;-36
2023/05/24 04:45:06;;;;;;;7.53;3.63;;;;;;;7.95;100.00;102434.38;5056600;28;20036;-41
2023/05/24 04:47:32;;;;;;;10.73;4.03;;;;;;;8.05;100.00;102439.56;5055673;28;20028;-36
2023/05/24 04:49:57;;;;;;;10.33;4.27;;;;;;;8.06;100.00;102438.56;5055548;28;20051;-36
2023/05/24 04:52:23;;;;;;;6.60;3.63;;;;;;;8.10;100.00;102432.66;5055642;28;20263;-36
2023/05/24 04:54:48;;;;;;;8.70;3.45;;;;;;;8.08;100.00;102429.28;5055486;28;20025;-36
2023/05/24 04:57:14;;;;;;;8.50;3.65;;;;;;;8.27;100.00;102433.41;5056276;28;20540;-35
2023/05/24 04:59:39;;;;;;;8.48;3.85;;;;;;;8.27;100.00;102430.72;5054993;28;20152;-36
2023/05/24 05:02:05;;;;;;;11.13;4.10;;;;;;;8.34;100.00;102433.53;5071285;28;20033;-36
2023/05/24 05:04:30;;;;;;;7.73;4.07;;;;;;;8.37;100.00;102430.53;5055069;28;20029;-36
2023/05/24 05:06:56;;;;;;;9.10;4.23;;;;;;;8.42;100.00;102437.06;5055656;28;20021;-35
2023/05/24 05:09:23;;;;;;;8.85;4.30;;;;;;;8.58;100.00;102436.09;5056082;28;20474;-35
2023/05/24 05:11:49;;;;;;;8.63;3.80;;;;;;;8.57;100.00;102444.38;5056004;28;20064;-35
2023/05/24 05:14:14;;;;;;;11.30;4.47;;;;;;;8.67;100.00;102424.25;5055186;28;20045;-35
2023/05/24 05:16:41;;;;;;;11.52;4.70;;;;;;;8.87;100.00;102440.78;5055998;28;20025;-35
2023/05/24 05:19:06;;;;;;;13.32;4.35;;;;;;;8.95;100.00;102432.63;5055308;28;20519;-35
2023/05/24 05:21:32;;;;;;;15.63;4.70;;;;;;;9.07;100.00;102435.72;5055043;28;20025;-35
2023/05/24 05:23:59;;;;;;;16.90;4.65;;;;;;;9.14;100.00;102447.47;5054856;28;20033;-36
2023/05/24 05:26:28;;;;;;;11.45;3.92;;;;;;;9.30;100.00;102446.47;5054920;28;20039;-36
2023/05/24 05:28:53;;;;;;;12.10;4.53;;;;;;;9.47;100.00;102444.47;5054846;28;20025;-36
2023/05/24 05:31:19;;;;;;;10.57;4.28;;;;;;;9.57;100.00;102428.00;5055427;28;20039;-36
2023/05/24 05:33:45;;;;;;;;;;;;;;;9.83;100.00;102446.44;5054939;28;20032;-36
2023/05/24 05:36:10;;;;;;;15.95;4.40;;;;;;;9.77;100.00;102442.63;5054498;28;19908;-36
2023/05/24 05:38:36;;;;;;;12.60;4.85;;;;;;;9.82;100.00;102442.88;5054747;28;20075;-36
2023/05/24 05:41:01;;;;;;;10.77;4.80;;;;;;;9.80;100.00;102434.94;5054930;28;20109;-40
2023/05/24 05:43:27;;;;;;;11.93;4.90;;;;;;;10.04;100.00;102438.38;5054883;28;20454;-36
2023/05/24 05:45:53;;;;;;;14.48;5.00;;;;;;;10.18;100.00;102445.63;5054828;28;20263;-46
2023/05/24 05:48:19;;;;;;;14.15;4.80;;;;;;;10.21;100.00;102433.63;5054217;28;20028;-36
2023/05/24 05:50:44;;;;;;;11.30;4.57;;;;;;;10.32;100.00;102427.75;5054606;28;20032;-37
2023/05/24 05:53:09;;;;;;;16.50;5.00;;;;;;;10.44;100.00;102439.75;5055024;28;20032;-37
2023/05/24 05:55:35;;;;;;;8.55;4.25;;;;;;;10.54;100.00;102444.81;5054742;28;20025;-37
2023/05/24 05:58:00;;;;;;;14.10;5.37;;;;;;;10.57;100.00;102444.44;5054547;28;20112;-37
2023/05/24 06:00:25;;;;;;;14.03;5.97;;;;;;;10.62;100.00;102438.47;5053600;28;20288;-36
2023/05/24 06:02:51;;;;;;;15.13;5.20;;;;;;;10.68;100.00;102451.22;5054291;28;20332;-36
2023/05/24 06:05:17;;;;;;;11.43;4.50;;;;;;;10.76;100.00;102451.94;5053315;28;20036;-37
2023/05/24 06:07:43;;;;;;;14.70;5.55;;;;;;;10.85;100.00;102452.66;5054119;28;20029;-36
2023/05/24 06:10:09;;;;;;;13.55;4.97;;;;;;;10.87;100.00;102452.44;5054221;28;20028;-36
2023/05/24 06:12:34;;;;;;;15.15;4.53;;;;;;;10.95;100.00;102458.56;5054113;28;20474;-36
2023/05/24 06:14:59;;;;;;;14.93;5.13;;;;;;;10.96;100.00;102457.53;5053769;28;20029;-37
2023/05/24 06:17:26;;;;;;;18.30;5.40;;;;;;;11.08;100.00;102457.84;5054106;28;20021;-37
2023/05/24 06:19:52;;;;;;;16.33;5.43;;;;;;;11.14;100.00;102451.66;5053839;28;20036;-37
2023/05/24 06:22:18;;;;;;;14.55;4.80;;;;;;;11.30;100.00;102459.47;5054155;28;20021;-37
2023/05/24 06:24:43;;;;;;;13.25;5.18;;;;;;;11.32;100.00;102467.41;5053920;28;20115;-36
2023/05/24 06:27:09;;;;;;;14.43;5.43;;;;;;;11.41;100.00;102468.09;5053568;28;20120;-37
2023/05/24 06:29:34;;;;;;;15.00;5.47;;;;;;;11.34;100.00;102462.63;5053809;28;20276;-37
2023/05/24 06:32:00;;;;;;;17.20;5.50;;;;;;;11.43;100.00;102474.19;5054358;28;20114;-37
2023/05/24 06:34:26;;;;;;;16.27;5.63;;;;;;;11.47;100.00;102468.16;5053746;28;20442;-37
2023/05/24 06:36:51;;;;;;;;;;;;;;;11.64;100.00;102473.28;5054039;28;20021;-37
2023/05/24 06:39:17;;;;;;;15.38;5.32;;;;;;;11.57;100.00;102462.41;5053292;28;20007;-37
2023/05/24 06:41:44;;;;;;;14.45;5.53;;;;;;;11.70;100.00;102467.06;5053937;28;20457;-36
2023/05/24 06:44:10;;;;;;;16.23;5.07;;;;;;;11.79;100.00;102460.44;5053248;28;20040;-37
2023/05/24 06:46:36;;;;;;;13.95;5.63;;;;;;;11.90;98.84;102465.31;5053928;28;20029;-37
2023/05/24 06:49:02;;;;;;;14.95;5.10;;;;;;;12.01;97.40;102470.19;5054405;28;20104;-37
2023/05/24 06:51:27;;;;;;;12.82;5.50;;;;;;;12.09;96.81;102467.28;5054131;28;20079;-37
2023/05/24 06:53:53;;;;;;;10.18;4.40;;;;;;;12.22;96.25;102471.13;5053275;28;20029;-37
2023/05/24 06:56:18;;;;;;;14.93;4.97;;;;;;;12.24;95.62;102475.28;5053482;28;20523;-37
2023/05/24 06:58:44;;;;;;;14.50;4.63;;;;;;;12.34;94.38;102470.31;5053995;28;20021;-37
2023/05/24 07:01:10;;;;;;;14.07;4.80;;;;;;;12.36;93.93;102476.41;5053580;28;20455;-37
2023/05/24 07:03:36;;;;;;;14.70;4.10;;;;;;;12.36;93.17;102464.72;5054134;28;20325;-37
2023/05/24 07:06:02;;;;;;;12.40;4.53;;;;;;;12.48;92.84;102468.50;5053691;28;20032;-37
2023/05/24 07:08:28;;;;;;;;;;;;;;;12.60;93.48;102464.16;5053769;28;20025;-37
2023/05/24 07:10:54;;;;;;;12.27;4.32;;;;;;;12.51;91.98;102464.53;5053393;28;19965;-37
2023/05/24 07:13:20;;;;;;;11.05;4.40;;;;;;;12.52;93.06;102449.94;5053561;28;20040;-37
2023/05/24 07:15:45;;;;;;;13.32;4.35;;;;;;;12.66;90.99;102464.38;5053635;28;20029;-37
2023/05/24 07:18:12;;;;;;;12.70;4.80;;;;;;;12.68;89.88;102459.56;5054115;28;20065;-37
2023/05/24 07:20:37;;;;;;;12.55;3.85;;;;;;;12.73;89.04;102466.03;5053568;28;20029;-37
2023/05/24 07:23:03;;;;;;;12.75;3.80;;;;;;;12.83;86.03;102473.78;5056901;28;20112;-37
2023/05/24 07:25:29;;;;;;;;;;;;;;;12.98;87.87;102466.31;5057723;28;20477;-37
2023/05/24 07:27:54;;;;;;;10.93;3.90;;;;;;;12.87;84.76;102464.19;5057998;28;19923;-37
2023/05/24 07:30:19;;;;;;;14.97;4.77;;;;;;;12.96;85.91;102471.09;5058013;28;20029;-37
2023/05/24 07:32:45;;;;;;;10.00;4.13;;;;;;;13.03;86.29;102477.38;5057358;28;20083;-37
2023/05/24 07:35:14;;;;;;;11.07;3.75;;;;;;;13.22;86.43;102477.63;5057081;28;20392;-37
2023/05/24 07:37:41;;;;;;;11.07;3.80;;;;;;;13.17;84.40;102485.53;5056959;28;20067;-37
2023/05/24 07:40:09;;;;;;;;;;;;;;;13.35;86.52;102477.63;5057950;28;20358;-37
2023/05/24 07:42:34;;;;;;;9.18;3.38;;;;;;;13.33;83.64;102483.28;5056941;28;20352;-37
2023/05/24 07:45:00;;;;;;;;;;;;;;;13.46;84.40;102482.41;5057921;28;20029;-37
2023/05/24 07:47:26;;;;;;;10.52;4.43;;;;;;;13.22;83.12;102477.63;5056562;28;19916;-37
2023/05/24 07:49:51;;;;;;;9.68;4.13;;;;;;;13.23;84.53;102472.00;5056467;28;20090;-37
2023/05/24 07:52:17;;;;;;;15.75;5.05;;;;;;;13.35;84.39;102472.19;5057291;28;20033;-38
2023/05/24 07:54:42;;;;;;;12.60;4.72;;;;;;;13.41;82.21;102471.34;5056475;28;20448;-37
2023/05/24 07:57:08;;;;;;;8.07;3.85;;;;;;;13.36;82.39;102479.28;5056645;28;20032;-37
2023/05/24 07:59:33;;;;;;;9.77;4.20;;;;;;;13.24;82.60;102475.53;5056526;28;20074;-37
2023/05/24 08:02:04;;;;;;;11.50;3.97;;;;;;;13.38;82.22;102482.66;5056941;28;20378;-36
2023/05/24 08:04:29;;;;;;;9.85;3.83;;;;;;;13.73;83.10;102485.94;5057037;28;20268;-37
2023/05/24 08:06:56;;;;;;;;;;;;;;;13.67;80.32;102481.38;5057216;28;20079;-37
2023/05/24 08:09:22;;;;;;;9.60;3.40;;;;;;;13.68;81.07;102465.88;5056398;28;19982;-37
2023/05/24 08:11:47;;;;;;;;;;;;;;;13.89;83.08;102471.06;5056623;28;20472;-37
2023/05/24 08:14:12;;;;;;;11.07;3.93;;;;;;;13.77;80.38;102480.94;5056615;28;20316;-37
2023/05/24 08:16:38;;;;;;;10.45;3.90;;;;;;;13.64;80.58;102462.75;5056235;28;20597;-37
2023/05/24 08:19:03;;;;;;;9.30;3.50;;;;;;;13.74;81.08;102475.91;5056256;28;20111;-37
2023/05/24 08:21:29;;;;;;;10.33;3.73;;;;;;;13.97;81.34;102453.69;5055873;28;20032;-37
2023/05/24 08:23:55;;;;;;;;;;;;;;;14.35;81.33;102472.78;5056261;28;20801;-37
2023/05/24 08:26:21;;;;;;;12.27;3.60;;;;;;;14.34;75.34;102462.91;5056389;28;19909;-37
2023/05/24 08:28:46;;;;;;;;;;;;;;;14.65;78.08;102463.00;5057033;28;20029;-37
2023/05/24 08:31:12;;;;;;;9.50;2.90;;;;;;;14.80;75.66;102470.03;5056590;28;19909;-37
2023/05/24 08:33:37;;;;;;;;;;;;;;;14.94;76.28;102477.91;5056247;28;20033;-37
2023/05/24 08:36:03;;;;;;;10.97;3.20;;;;;;;15.17;76.16;102466.38;5055744;28;19912;-37
2023/05/24 08:38:28;;;;;;;13.38;3.95;;;;;;;15.32;71.03;102459.75;5055904;28;20268;-37
2023/05/24 08:40:54;;;;;;;10.20;3.58;;;;;;;15.52;69.91;102460.44;5055853;28;20037;-37
2023/05/24 08:43:20;;;;;;;;;;;;;;;15.72;73.84;102456.72;5056519;28;20040;-37
2023/05/24 08:45:47;;;;;;;8.18;3.08;;;;;;;15.77;69.52;102454.13;5055795;28;19909;-37
2023/05/24 08:48:13;;;;;;;9.68;3.00;;;;;;;15.89;69.28;102452.31;5055706;28;20098;-37
2023/05/24 08:50:40;;;;;;;10.60;3.00;;;;;;;16.04;68.09;102447.28;5055702;28;20059;-37
2023/05/24 08:53:07;;;;;;;8.93;2.85;;;;;;;16.23;66.46;102448.94;5054085;28;20036;-37
2023/05/24 08:55:34;;;;;;;10.43;3.38;;;;;;;16.46;65.36;102437.28;5055424;28;20021;-37
2023/05/24 08:58:00;;;;;;;9.73;2.78;;;;;;;16.25;64.02;102439.69;5055509;28;20078;-37
2023/05/24 09:00:25;;;;;;;;;;;;;;;16.47;68.27;102443.59;5055867;28;20057;-37
2023/05/24 09:02:52;;;;;;;9.65;2.70;;;;;;;16.02;64.85;102437.69;5055396;28;19913;-37
2023/05/24 09:05:20;;;;;;;8.05;2.88;;;;;;;15.80;65.42;102431.84;5055699;28;20021;-37
2023/05/24 09:07:48;;;;;;;7.25;2.95;;;;;;;15.70;62.49;102440.56;5055587;28;20466;-37
2023/05/24 09:10:14;;;;;;;6.40;2.60;;;;;;;15.84;65.11;102433.06;5056145;28;20347;-37
2023/05/24 09:12:44;;;;;;;9.45;3.50;;;;;;;15.40;66.18;102437.69;5055193;28;20461;-37
2023/05/24 09:15:10;;;;;;;8.73;2.63;;;;;;;15.44;66.52;102439.75;5056004;28;20028;-37
2023/05/24 09:17:36;;;;;;;;;;;;;;;15.59;68.09;102442.09;5054950;28;20025;-37
2023/05/24 09:20:05;;;;;;;11.13;3.20;;;;;;;14.87;65.41;102438.13;5055004;28;20007;-37
2023/05/24 09:22:32;;;;;;;8.70;2.60;;;;;;;14.63;66.98;102440.59;5054781;28;20037;-37
2023/05/24 09:25:01;;;;;;;11.80;3.75;;;;;;;14.59;67.45;102425.78;5055007;28;20037;-37
2023/05/24 09:27:26;;;;;;;11.55;3.08;;;;;;;14.72;67.85;102434.91;5054962;28;20082;-37
2023/05/24 09:29:52;;;;;;;;;;;;;;;15.04;68.84;102444.72;5056134;28;20120;-37
2023/05/24 09:32:22;;;;;;;9.32;2.70;;;;;;;15.08;65.13;102429.59;5054901;28;19960;-37
2023/05/24 09:34:48;;;;;;;9.80;2.90;;;;;;;15.63;64.84;102435.19;5054521;28;20082;-37
2023/05/24 09:37:15;;;;;;;;;;;;;;;16.00;67.15;102437.88;5055577;28;20021;-37
2023/05/24 09:39:41;;;;;;;8.40;2.75;;;;;;;16.36;65.19;102441.66;5055193;28;20257;-37
2023/05/24 09:42:07;;;;;;;7.88;2.75;;;;;;;16.55;62.71;102426.88;5055544;28;20087;-37
2023/05/24 09:44:32;;;;;;;;;;;;;;;16.85;64.92;102424.13;5054218;28;20370;-37
2023/05/24 09:47:03;;;;;;;8.13;3.10;;;;;;;16.66;62.20;102420.63;5054572;28;19950;-37
2023/05/24 09:49:29;;;;;;;9.93;2.88;;;;;;;16.30;61.53;102431.63;5055329;28;20259;-37
2023/05/24 09:51:55;;;;;;;7.93;2.72;;;;;;;15.93;61.45;102428.97;5055326;28;20059;-37
2023/05/24 09:54:20;;;;;;;;;;;;;;;16.04;63.27;102430.09;5054801;28;20493;-37
2023/05/24 09:56:46;;;;;;;10.43;3.25;;;;;;;15.62;64.40;102433.47;5054400;28;19909;-37
2023/05/24 09:59:11;;;;;;;12.45;3.33;;;;;;;15.74;63.76;102427.31;5053763;28;20075;-37
2023/05/24 10:01:37;;;;;;;;;;;;;;;16.18;64.99;102423.41;5055619;28;20090;-37
2023/05/24 10:04:05;;;;;;;10.57;3.38;;;;;;;16.48;62.58;102423.41;5054220;28;19917;-37
2023/05/24 10:06:35;;;;;;;9.38;3.10;;;;;;;16.82;58.67;102415.56;5054566;28;20374;-37
2023/05/24 10:09:03;;;;;;;8.90;2.67;;;;;;;17.10;57.93;102401.25;5054733;28;20135;-37
2023/05/24 10:11:31;;;;;;;9.02;2.55;;;;;;;17.12;56.19;102410.03;5054147;28;20064;-37
2023/05/24 10:13:57;;;;;;;10.93;2.20;;;;;;;16.97;58.35;102411.31;5054299;28;20515;-37
2023/05/24 10:16:22;;;;;;;6.18;2.30;;;;;;;16.67;56.79;102414.09;5054662;28;20481;-37
2023/05/24 10:18:49;;;;;;;;;;;;;;;16.87;59.07;102421.16;5054423;28;20025;-37
2023/05/24 10:21:16;;;;;;;11.18;3.03;;;;;;;16.44;59.33;102405.81;5053914;28;19921;-37
2023/05/24 10:23:43;;;;;;;7.78;2.50;;;;;;;16.34;59.81;102416.47;5053927;28;20112;-37
2023/05/24 10:26:11;;;;;;;8.27;2.97;;;;;;;16.18;59.77;102424.22;5054489;28;20112;-37
2023/05/24 10:28:47;;;;;;;7.22;2.35;;;;;;;16.22;61.18;102421.88;5053534;28;20501;-37
2023/05/24 10:31:30;;;;;;;10.70;2.97;;;;;;;16.16;59.91;102420.09;5053565;28;20029;-37
2023/05/24 10:33:59;;;;;;;9.00;2.70;;;;;;;16.03;59.86;102406.59;5054140;28;20104;-37
2023/05/24 10:36:25;;;;;;;8.07;2.55;;;;;;;16.10;59.17;102416.34;5054576;28;20469;-37
2023/05/24 10:38:51;;;;;;;;;;;;;;;16.32;59.58;102407.69;5054107;28;20040;-37
2023/05/24 10:41:17;;;;;;;6.93;2.92;;;;;;;16.20;58.62;102411.22;5054457;28;19913;-37
2023/05/24 10:43:45;;;;;;;5.82;2.63;;;;;;;16.23;59.06;102416.19;5053645;28;20025;-37
2023/05/24 10:46:14;;;;;;;7.97;2.80;;;;;;;16.22;57.34;102414.53;5053424;28;20028;-37
2023/05/24 10:48:40;;;;;;;6.40;2.80;;;;;;;16.29;57.61;102398.03;5053532;28;20029;-37
2023/05/24 10:51:31;;;;;;;8.32;2.22;;;;;;;16.36;58.28;102408.91;5054410;28;20033;-37
2023/05/24 10:53:57;;;;;;;6.32;2.95;;;;;;;16.38;56.67;102413.03;5053829;28;20029;-37
2023/05/24 10:56:22;;;;;;;;;;;;;;;16.48;57.00;102415.22;5054347;28;20055;-37
2023/05/24 10:58:54;;;;;;;4.97;2.10;;;;;;;16.36;57.85;102420.63;5053618;28;19915;-37
2023/05/24 11:01:31;;;;;;;8.68;2.38;;;;;;;16.25;59.62;102413.25;5054145;28;20309;-37
2023/05/24 11:04:10;;;;;;;9.55;3.17;;;;;;;16.39;60.35;102409.25;5053933;28;20112;-37
2023/05/24 11:06:56;;;;;;;7.90;2.72;;;;;;;16.39;61.27;102422.06;5054236;28;20025;-37
2023/05/24 11:09:23;;;;;;;8.15;2.42;;;;;;;16.42;60.55;102403.31;5053705;28;20067;-37
2023/05/24 11:11:52;;;;;;;7.60;2.53;;;;;;;16.36;58.80;102414.34;5053982;28;20053;-37
2023/05/24 11:14:21;;;;;;;7.72;2.45;;;;;;;16.41;60.47;102415.31;5053070;28;20025;-37
2023/05/24 11:16:48;;;;;;;7.85;2.58;;;;;;;16.40;60.41;102421.03;5053276;28;20040;-37
2023/05/24 11:19:18;;;;;;;10.32;2.95;;;;;;;16.16;60.11;102423.63;5053192;28;20082;-37
2023/05/24 11:21:45;;;;;;;7.85;2.65;;;;;;;16.19;60.38;102420.44;5053579;28;20025;-38
2023/05/24 11:24:11;;;;;;;9.45;2.67;;;;;;;16.20;61.36;102424.84;5053246;28;20025;-37
2023/05/24 11:26:36;;;;;;;;;;;;;;;16.34;61.83;102424.66;5054551;28;20044;-37